Time;durP1;ratioP1;P1;durP2;ratioP2;P2;SDS_P1;SDS_P2;PMS_P1;PMS_P2;Temp;Humidity;BMP_temperature;BMP_pressure;BME280_temperature;BME280_humidity;BME280_pressure;Samples;Min_cycle;Max_cycle;Signal;HPM_P1;HPM_P2
2023/10/01 00:04:13;;;;;;;3.30;1.83;;;;;;;;;;20807728;28;20218;-84
2023/10/01 00:14:16;;;;;;;3.43;1.87;;;;;;;;;;20845339;28;20242;-84
2023/10/01 00:24:17;;;;;;;3.13;1.70;;;;;;;;;;20787697;28;20222;-83
2023/10/01 00:34:19;;;;;;;2.63;1.80;;;;;;;;;;20811364;28;20214;-83
2023/10/01 00:44:21;;;;;;;3.00;2.00;;;;;;;;;;20807678;28;20545;-82
2023/10/01 00:54:23;;;;;;;3.63;1.93;;;;;;;;;;20785945;28;20284;-83
2023/10/01 01:04:28;;;;;;;3.73;2.00;;;;;;;;;;20789989;28;20841;-83
2023/10/01 01:14:30;;;;;;;4.17;2.37;;;;;;;;;;20827884;28;20227;-82
2023/10/01 01:24:32;;;;;;;4.40;1.90;;;;;;;;;;20805276;28;20268;-82
2023/10/01 01:34:37;;;;;;;2.50;1.60;;;;;;;;;;20803120;28;20515;-82
2023/10/01 01:44:39;;;;;;;3.03;1.73;;;;;;;;;;20788703;28;20230;-81
2023/10/01 01:54:42;;;;;;;3.10;2.13;;;;;;;;;;20794839;28;21255;-82
2023/10/01 02:04:58;;;;;;;4.10;2.00;;;;;;;;;;20814504;28;20296;-81
2023/10/01 02:15:08;;;;;;;3.67;1.80;;;16.10;99.90;;;;;;20812777;28;20218;-83
2023/10/01 02:25:10;;;;;;;2.97;1.50;;;;;;;;;;20799344;28;20280;-81
2023/10/01 02:35:34;;;;;;;2.30;1.57;;;;;;;;;;20766404;28;20211;-80
2023/10/01 02:45:35;;;;;;;2.87;1.80;;;;;;;;;;20793956;28;20579;-81
2023/10/01 02:55:44;;;;;;;3.40;1.70;;;;;;;;;;20774188;28;20264;-81
2023/10/01 03:05:49;;;;;;;3.03;1.67;;;;;;;;;;20802815;28;20264;-81
2023/10/01 03:16:40;;;;;;;4.10;1.83;;;;;;;;;;20803767;28;20287;-81
2023/10/01 03:26:12;;;;;;;4.07;1.80;;;;;;;;;;20834116;28;20244;-82
2023/10/01 03:36:24;;;;;;;4.00;2.10;;;;;;;;;;20784075;28;20223;-82
2023/10/01 03:46:26;;;;;;;3.83;2.00;;;;;;;;;;20842657;28;20764;-81
2023/10/01 03:56:33;;;;;;;3.20;2.07;;;;;;;;;;20793431;28;20210;-80
2023/10/01 04:06:35;;;;;;;3.77;2.00;;;;;;;;;;20795545;28;20254;-82
2023/10/01 04:16:40;;;;;;;4.33;2.50;;;;;;;;;;20801207;28;20211;-81
2023/10/01 04:26:42;;;;;;;3.63;2.07;;;;;;;;;;20793299;28;20222;-83
2023/10/01 04:36:50;;;;;;;4.20;2.43;;;15.10;99.90;;;;;;20770198;28;20231;-83
2023/10/01 04:46:55;;;;;;;3.83;2.20;;;;;;;;;;20786313;28;20256;-82
2023/10/01 04:56:57;;;;;;;4.23;2.20;;;;;;;;;;20800787;28;20244;-81
2023/10/01 05:07:04;;;;;;;2.90;2.10;;;;;;;;;;20823257;28;20223;-81
2023/10/01 05:17:07;;;;;;;3.43;2.20;;;;;;;;;;20799798;28;20612;-82
2023/10/01 05:27:18;;;;;;;3.37;1.90;;;;;;;;;;20800377;28;20214;-85
2023/10/01 05:37:26;;;;;;;4.33;2.47;;;;;;;;;;20801945;28;20679;-83
2023/10/01 05:47:50;;;;;;;4.97;2.37;;;;;;;;;;20805354;28;20570;-84
2023/10/01 05:57:52;;;;;;;4.37;2.83;;;;;;;;;;20803184;28;20272;-84
2023/10/01 06:07:55;;;;;;;3.50;2.07;;;;;;;;;;20778761;28;20218;-83
2023/10/01 06:18:00;;;;;;;3.70;2.20;;;;;;;;;;20781712;28;20215;-84
2023/10/01 06:28:07;;;;;;;4.17;2.27;;;;;;;;;;20787437;28;20729;-83
2023/10/01 06:38:09;;;;;;;3.53;2.20;;;;;;;;;;20807709;28;20633;-82
2023/10/01 06:48:14;;;;;;;3.30;2.40;;;;;;;;;;20805502;28;20554;-82
2023/10/01 06:58:16;;;;;;;7.90;2.60;;;;;;;;;;20829539;28;20271;-80
2023/10/01 07:08:18;;;;;;;3.80;2.40;;;;;;;;;;20811522;28;20582;-81
2023/10/01 07:18:22;;;;;;;3.47;2.17;;;;;;;;;;20836987;28;20267;-80
2023/10/01 07:28:24;;;;;;;4.63;2.60;;;;;;;;;;20784744;28;20230;-80
2023/10/01 07:38:48;;;;;;;3.23;1.97;;;15.50;99.90;;;;;;20809480;28;20230;-80
2023/10/01 07:48:51;;;;;;;5.83;2.43;;;;;;;;;;20827124;28;20594;-79
2023/10/01 08:09:14;;;;;;;4.63;2.70;;;;;;;;;;20808074;28;20218;-80
2023/10/01 08:19:22;;;;;;;7.57;3.17;;;16.00;99.90;;;;;;20806156;28;20276;-80
2023/10/01 08:29:28;;;;;;;6.67;3.23;;;;;;;;;;20813948;28;20685;-79
2023/10/01 08:39:47;;;;;;;5.73;3.10;;;;;;;;;;20827867;28;20241;-81
2023/10/01 08:49:51;;;;;;;5.50;3.13;;;16.90;99.90;;;;;;20823124;28;20292;-81
2023/10/01 08:59:53;;;;;;;5.23;3.20;;;;;;;;;;20795482;28;20206;-82
2023/10/01 09:10:08;;;;;;;6.00;3.40;;;;;;;;;;20797157;28;20234;-81
2023/10/01 09:20:17;;;;;;;4.40;2.67;;;;;;;;;;20804532;28;20218;-81
2023/10/01 09:30:31;;;;;;;4.57;2.77;;;;;;;;;;20791738;28;20709;-82
2023/10/01 09:40:33;;;;;;;3.40;2.20;;;;;;;;;;20837442;28;20206;-82
2023/10/01 09:50:42;;;;;;;4.43;2.67;;;;;;;;;;20809300;28;20264;-80
2023/10/01 10:00:44;;;;;;;4.00;2.37;;;;;;;;;;20774869;28;20573;-81
2023/10/01 10:10:48;;;;;;;2.90;2.00;;;;;;;;;;20786902;28;20226;-81
2023/10/01 10:21:00;;;;;;;4.70;2.40;;;19.10;99.90;;;;;;20788431;28;20208;-82
2023/10/01 10:31:30;;;;;;;3.80;2.00;;;19.40;99.90;;;;;;20778765;28;20230;-83
2023/10/01 10:41:32;;;;;;;4.83;1.90;;;;;;;;;;20801685;28;20220;-81
2023/10/01 10:51:46;;;;;;;3.07;2.00;;;;;;;;;;20818297;28;20226;-83
2023/10/01 11:01:48;;;;;;;4.13;1.73;;;;;;;;;;20821104;28;20211;-83
2023/10/01 11:12:01;;;;;;;2.90;1.70;;;;;;;;;;20779238;28;20938;-83
2023/10/01 11:22:04;;;;;;;2.60;1.47;;;;;;;;;;20820656;28;20633;-83
2023/10/01 11:32:16;;;;;;;3.30;1.63;;;;;;;;;;20843232;28;20726;-82
2023/10/01 11:42:27;;;;;;;3.23;1.63;;;;;;;;;;20770402;28;20228;-83
2023/10/01 11:52:30;;;;;;;3.17;1.70;;;;;;;;;;20779287;28;20228;-83
2023/10/01 12:02:33;;;;;;;3.23;1.67;;;;;;;;;;20791184;28;20220;-84
2023/10/01 12:12:38;;;;;;;3.63;1.60;;;;;;;;;;20790181;28;20707;-83
2023/10/01 12:22:42;;;;;;;3.00;1.73;;;;;;;;;;20799952;28;20212;-83
2023/10/01 12:32:48;;;;;;;2.70;1.80;;;;;;;;;;20814406;28;20247;-82
2023/10/01 12:42:52;;;;;;;3.80;2.00;;;;;;;;;;20827489;28;20204;-82
2023/10/01 13:03:20;;;;;;;2.73;1.83;;;;;;;;;;20827257;28;20211;-82
2023/10/01 13:13:29;;;;;;;3.53;2.00;;;;;;;;;;20809011;28;20702;-82
2023/10/01 13:23:31;;;;;;;3.80;2.00;;;;;;;;;;20842980;28;20217;-83
2023/10/01 14:14:55;;;;;;;3.47;2.03;;;;;;;;;;20806038;28;20584;-83
2023/10/01 14:24:57;;;;;;;4.83;2.50;;;;;;;;;;20784111;28;20228;-83
2023/10/01 14:34:59;;;;;;;4.17;1.87;;;;;;;;;;20760197;28;20218;-83
2023/10/01 14:45:05;;;;;;;3.87;2.20;;;;;;;;;;20753398;28;20576;-82
2023/10/01 14:55:06;;;;;;;4.43;2.33;;;;;;;;;;20784268;28;20580;-82
2023/10/01 15:05:12;;;;;;;3.97;2.20;;;22.00;99.90;;;;;;20766537;28;20775;-81
2023/10/01 15:15:18;;;;;;;6.10;2.50;;;;;;;;;;20824071;28;20713;-83
2023/10/01 15:25:21;;;;;;;6.13;2.20;;;;;;;;;;20785293;28;20227;-81
2023/10/01 15:35:25;;;;;;;3.63;2.20;;;;;;;;;;20782201;28;20264;-83
2023/10/01 15:45:30;;;;;;;4.53;2.23;;;;;;;;;;20763010;28;20248;-83
2023/10/01 15:55:32;;;;;;;3.70;2.27;;;;;;;;;;20761376;28;20219;-82
2023/10/01 16:05:41;;;;;;;4.20;2.20;;;;;;;;;;20825883;28;20223;-82
2023/10/01 16:15:46;;;;;;;3.47;1.93;;;;;;;;;;20824883;28;20717;-81
2023/10/01 16:25:50;;;;;;;4.20;2.27;;;;;;;;;;20813857;28;20270;-81
2023/10/01 16:35:52;;;;;;;4.20;2.20;;;;;;;;;;20801780;28;20214;-80
2023/10/01 16:45:54;;;;;;;3.07;1.90;;;;;;;;;;20799329;28;20274;-82
2023/10/01 16:55:56;;;;;;;3.37;1.90;;;;;;;;;;20791561;28;20498;-82
2023/10/01 17:06:06;;;;;;;2.93;1.87;;;;;;;;;;20800192;28;20250;-84
2023/10/01 17:16:17;;;;;;;4.70;2.27;;;;;;;;;;20787159;28;20578;-83
2023/10/01 17:26:25;;;;;;;3.80;1.80;;;;;;;;;;20793629;28;20217;-82
2023/10/01 17:36:28;;;;;;;4.50;2.20;;;;;;;;;;20802159;28;20224;-82
2023/10/01 17:46:39;;;;;;;3.77;2.43;;;20.50;99.90;;;;;;20794438;28;20291;-83
2023/10/01 17:56:43;;;;;;;4.50;2.17;;;;;;;;;;20774893;28;20227;-83
2023/10/01 18:06:57;;;;;;;4.73;2.17;;;;;;;;;;20802004;28;20686;-82
2023/10/01 18:16:59;;;;;;;5.03;1.80;;;;;;;;;;20790409;28;20231;-81
2023/10/01 18:27:05;;;;;;;3.80;2.30;;;;;;;;;;20825337;28;20263;-83
2023/10/01 18:37:08;;;;;;;4.43;2.37;;;;;;;;;;20811203;28;20236;-83
2023/10/01 18:47:11;;;;;;;3.33;2.17;;;;;;;;;;20793359;28;20285;-82
2023/10/01 18:57:13;;;;;;;3.90;2.17;;;;;;;;;;20785412;28;20212;-81
2023/10/01 19:07:15;;;;;;;4.07;1.93;;;;;;;;;;20780892;28;20310;-81
2023/10/01 19:17:17;;;;;;;3.80;2.00;;;;;;;;;;20801752;28;20219;-81
2023/10/01 19:27:19;;;;;;;2.93;1.83;;;;;;;;;;20824619;28;20263;-82
2023/10/01 19:37:21;;;;;;;4.30;2.37;;;;;;;;;;20776379;28;20214;-82
2023/10/01 19:47:22;;;;;;;4.27;2.40;;;;;;;;;;20831056;28;20222;-81
2023/10/01 19:57:32;;;;;;;3.63;2.20;;;;;;;;;;20851112;28;20212;-81
2023/10/01 20:07:33;;;;;;;4.93;2.60;;;;;;;;;;20814601;28;20272;-81
2023/10/01 20:17:35;;;;;;;4.00;2.17;;;;;;;;;;20811993;28;20216;-82
2023/10/01 20:27:38;;;;;;;7.37;2.63;;;;;;;;;;20785844;28;20705;-82
2023/10/01 20:37:40;;;;;;;6.17;2.23;;;;;;;;;;20830954;28;20310;-82
2023/10/01 20:47:42;;;;;;;4.83;2.23;;;;;;;;;;20776118;28;20235;-84
2023/10/01 20:57:44;;;;;;;4.30;2.10;;;;;;;;;;20804754;28;20238;-85
2023/10/01 21:07:46;;;;;;;3.67;2.23;;;;;;;;;;20806441;28;20269;-86
2023/10/01 21:17:49;;;;;;;4.27;2.30;;;;;;;;;;20778366;28;20215;-85
2023/10/01 21:27:52;;;;;;;5.40;2.07;;;;;;;;;;20809238;28;20287;-82
2023/10/01 21:38:07;;;;;;;4.93;2.20;;;;;;;;;;20806375;28;20272;-84
2023/10/01 21:48:12;;;;;;;5.57;2.50;;;18.20;99.90;;;;;;20789102;28;20231;-83
2023/10/01 21:58:18;;;;;;;4.17;2.33;;;;;;;;;;20761425;28;20235;-83
2023/10/01 22:08:28;;;;;;;3.87;2.20;;;;;;;;;;20830085;28;20235;-83
2023/10/01 22:18:33;;;;;;;3.83;2.27;;;;;;;;;;20804928;28;20214;-84
2023/10/01 22:28:35;;;;;;;5.47;2.50;;;;;;;;;;20770917;28;20222;-84
2023/10/01 22:38:37;;;;;;;5.63;2.47;;;;;;;;;;20758059;28;20206;-82
2023/10/01 22:48:45;;;;;;;3.67;2.17;;;;;;;;;;20810547;28;20227;-83
2023/10/01 22:58:46;;;;;;;5.60;2.87;;;;;;;;;;20760671;28;20212;-83
2023/10/01 23:08:50;;;;;;;4.30;2.33;;;;;;;;;;20801451;28;20280;-83
2023/10/01 23:19:17;;;;;;;3.57;1.97;;;;;;;;;;20802368;28;20210;-82
2023/10/01 23:29:16;;;;;;;3.80;2.30;;;;;;;;;;20823648;28;20230;-82
2023/10/01 23:49:28;;;;;;;4.20;2.20;;;;;;;;;;20826130;28;20295;-82
2023/10/01 23:59:33;;;;;;;6.10;2.80;;;;;;;;;;20778172;28;20222;-83
